Terminal Aerodrome Forecast
Issued by NWS Cleveland, OH

Home | Current Version | Previous Version | Text Only | Print | Product List | Glossary Off
Versions: 1 2 3 4 5 6 7 8 9 10 11 12 13 14 15 16 17 18 19 20 21 22

000
FTUS41 KCLE 252300
TAFERI
TAF
KERI 252325Z 2600/2624 18005KT P6SM SKC
     FM260600 18008KT P6SM BKN250
     FM261100 19008KT 6SM HZ BKN250
     FM261400 21008KT P6SM SCT035 BKN250
     FM261800 25008KT P6SM SCT035 BKN250=

USA.gov is the U.S. government's official web portal to all federal, state and local government web resources and services.